sensor_id;sensor_type;location;lat;lon;timestamp;P1;durP1;ratioP1;P2;durP2;ratioP2
4738;SDS011;2383;48.632;10.156;2024-02-26T00:01:00;26.13;;;15.87;;
4738;SDS011;2383;48.632;10.156;2024-02-26T00:05:06;22.33;;;11.87;;
4738;SDS011;2383;48.632;10.156;2024-02-26T00:09:09;16.93;;;9.60;;
4738;SDS011;2383;48.632;10.156;2024-02-26T00:13:12;13.53;;;8.30;;
4738;SDS011;2383;48.632;10.156;2024-02-26T00:17:14;18.67;;;9.13;;
4738;SDS011;2383;48.632;10.156;2024-02-26T00:21:16;18.67;;;10.13;;
4738;SDS011;2383;48.632;10.156;2024-02-26T00:25:18;18.57;;;10.20;;
4738;SDS011;2383;48.632;10.156;2024-02-26T00:29:20;19.43;;;9.57;;
4738;SDS011;2383;48.632;10.156;2024-02-26T00:33:23;20.83;;;9.70;;
4738;SDS011;2383;48.632;10.156;2024-02-26T00:37:25;18.97;;;9.60;;
4738;SDS011;2383;48.632;10.156;2024-02-26T00:41:27;12.43;;;8.00;;
4738;SDS011;2383;48.632;10.156;2024-02-26T00:45:29;10.17;;;7.00;;
4738;SDS011;2383;48.632;10.156;2024-02-26T00:49:33;10.53;;;6.20;;
4738;SDS011;2383;48.632;10.156;2024-02-26T00:53:35;11.73;;;7.13;;
4738;SDS011;2383;48.632;10.156;2024-02-26T00:57:37;12.50;;;7.30;;
4738;SDS011;2383;48.632;10.156;2024-02-26T01:01:39;10.43;;;7.00;;
4738;SDS011;2383;48.632;10.156;2024-02-26T01:05:41;11.73;;;7.23;;
4738;SDS011;2383;48.632;10.156;2024-02-26T01:09:43;9.87;;;7.00;;
4738;SDS011;2383;48.632;10.156;2024-02-26T01:13:45;11.40;;;7.03;;
4738;SDS011;2383;48.632;10.156;2024-02-26T01:17:47;8.73;;;6.33;;
4738;SDS011;2383;48.632;10.156;2024-02-26T01:21:50;8.73;;;6.80;;
4738;SDS011;2383;48.632;10.156;2024-02-26T01:25:52;9.87;;;7.07;;
4738;SDS011;2383;48.632;10.156;2024-02-26T01:29:54;8.10;;;7.00;;
4738;SDS011;2383;48.632;10.156;2024-02-26T01:33:56;8.53;;;6.47;;
4738;SDS011;2383;48.632;10.156;2024-02-26T01:37:58;10.27;;;7.00;;
4738;SDS011;2383;48.632;10.156;2024-02-26T01:42:00;10.10;;;7.30;;
4738;SDS011;2383;48.632;10.156;2024-02-26T01:46:03;9.07;;;7.03;;
4738;SDS011;2383;48.632;10.156;2024-02-26T01:50:05;10.20;;;7.40;;
4738;SDS011;2383;48.632;10.156;2024-02-26T01:54:08;11.00;;;6.80;;
4738;SDS011;2383;48.632;10.156;2024-02-26T01:58:10;8.47;;;6.90;;
4738;SDS011;2383;48.632;10.156;2024-02-26T02:02:13;9.07;;;6.83;;
4738;SDS011;2383;48.632;10.156;2024-02-26T02:06:16;12.30;;;7.97;;
4738;SDS011;2383;48.632;10.156;2024-02-26T02:10:20;10.97;;;7.40;;
4738;SDS011;2383;48.632;10.156;2024-02-26T02:14:27;9.53;;;7.30;;
4738;SDS011;2383;48.632;10.156;2024-02-26T02:18:29;9.23;;;6.90;;
4738;SDS011;2383;48.632;10.156;2024-02-26T02:22:31;7.83;;;6.97;;
4738;SDS011;2383;48.632;10.156;2024-02-26T02:26:33;10.07;;;6.50;;
4738;SDS011;2383;48.632;10.156;2024-02-26T02:30:36;8.43;;;6.77;;
4738;SDS011;2383;48.632;10.156;2024-02-26T02:34:39;10.40;;;6.57;;
4738;SDS011;2383;48.632;10.156;2024-02-26T02:38:48;9.17;;;7.03;;
4738;SDS011;2383;48.632;10.156;2024-02-26T02:42:54;9.93;;;6.97;;
4738;SDS011;2383;48.632;10.156;2024-02-26T02:46:57;10.30;;;7.23;;
4738;SDS011;2383;48.632;10.156;2024-02-26T02:50:59;9.27;;;6.87;;
4738;SDS011;2383;48.632;10.156;2024-02-26T02:55:01;11.07;;;7.50;;
4738;SDS011;2383;48.632;10.156;2024-02-26T02:59:03;10.37;;;6.73;;
4738;SDS011;2383;48.632;10.156;2024-02-26T03:03:05;9.33;;;7.13;;
4738;SDS011;2383;48.632;10.156;2024-02-26T03:07:07;9.70;;;6.40;;
4738;SDS011;2383;48.632;10.156;2024-02-26T03:11:14;9.90;;;7.10;;
4738;SDS011;2383;48.632;10.156;2024-02-26T03:15:16;12.10;;;7.03;;
4738;SDS011;2383;48.632;10.156;2024-02-26T03:19:19;9.70;;;7.37;;
4738;SDS011;2383;48.632;10.156;2024-02-26T03:23:21;10.80;;;7.10;;
4738;SDS011;2383;48.632;10.156;2024-02-26T03:27:23;9.57;;;7.20;;
4738;SDS011;2383;48.632;10.156;2024-02-26T03:31:25;10.03;;;7.50;;
4738;SDS011;2383;48.632;10.156;2024-02-26T03:35:27;9.23;;;7.33;;
4738;SDS011;2383;48.632;10.156;2024-02-26T03:39:29;9.60;;;7.27;;
4738;SDS011;2383;48.632;10.156;2024-02-26T03:43:31;9.77;;;6.90;;
4738;SDS011;2383;48.632;10.156;2024-02-26T03:47:33;10.90;;;7.70;;
4738;SDS011;2383;48.632;10.156;2024-02-26T03:51:36;10.10;;;7.60;;
4738;SDS011;2383;48.632;10.156;2024-02-26T03:55:38;10.47;;;7.40;;
4738;SDS011;2383;48.632;10.156;2024-02-26T03:59:43;10.40;;;7.87;;
4738;SDS011;2383;48.632;10.156;2024-02-26T04:03:45;9.73;;;7.67;;
4738;SDS011;2383;48.632;10.156;2024-02-26T04:07:47;10.70;;;7.73;;
4738;SDS011;2383;48.632;10.156;2024-02-26T04:11:49;11.07;;;7.97;;
4738;SDS011;2383;48.632;10.156;2024-02-26T04:15:51;12.77;;;8.10;;
4738;SDS011;2383;48.632;10.156;2024-02-26T04:19:53;10.97;;;7.73;;
4738;SDS011;2383;48.632;10.156;2024-02-26T04:23:55;10.30;;;8.07;;
4738;SDS011;2383;48.632;10.156;2024-02-26T04:27:58;11.30;;;8.40;;
4738;SDS011;2383;48.632;10.156;2024-02-26T04:32:00;12.43;;;8.40;;
4738;SDS011;2383;48.632;10.156;2024-02-26T04:36:02;12.87;;;8.80;;
4738;SDS011;2383;48.632;10.156;2024-02-26T04:40:04;13.00;;;8.77;;
4738;SDS011;2383;48.632;10.156;2024-02-26T04:44:07;17.43;;;9.10;;
4738;SDS011;2383;48.632;10.156;2024-02-26T04:48:09;11.90;;;9.37;;
4738;SDS011;2383;48.632;10.156;2024-02-26T04:52:11;13.57;;;8.87;;
4738;SDS011;2383;48.632;10.156;2024-02-26T04:56:13;16.33;;;8.53;;
4738;SDS011;2383;48.632;10.156;2024-02-26T05:00:16;11.90;;;9.10;;
4738;SDS011;2383;48.632;10.156;2024-02-26T05:04:18;14.77;;;9.83;;
4738;SDS011;2383;48.632;10.156;2024-02-26T05:08:21;12.47;;;8.77;;
4738;SDS011;2383;48.632;10.156;2024-02-26T05:12:23;11.13;;;8.40;;
4738;SDS011;2383;48.632;10.156;2024-02-26T05:16:25;11.33;;;7.80;;
4738;SDS011;2383;48.632;10.156;2024-02-26T05:20:28;13.00;;;8.00;;
4738;SDS011;2383;48.632;10.156;2024-02-26T05:24:31;13.17;;;8.30;;
4738;SDS011;2383;48.632;10.156;2024-02-26T05:28:33;11.97;;;8.37;;
4738;SDS011;2383;48.632;10.156;2024-02-26T05:32:35;11.23;;;7.97;;
4738;SDS011;2383;48.632;10.156;2024-02-26T05:36:37;14.53;;;8.37;;
4738;SDS011;2383;48.632;10.156;2024-02-26T05:40:40;13.77;;;9.33;;
4738;SDS011;2383;48.632;10.156;2024-02-26T05:44:43;13.37;;;9.30;;
4738;SDS011;2383;48.632;10.156;2024-02-26T05:48:48;12.33;;;8.20;;
4738;SDS011;2383;48.632;10.156;2024-02-26T05:52:53;14.17;;;8.37;;
4738;SDS011;2383;48.632;10.156;2024-02-26T05:56:55;11.67;;;8.60;;
4738;SDS011;2383;48.632;10.156;2024-02-26T06:00:59;13.03;;;8.83;;
4738;SDS011;2383;48.632;10.156;2024-02-26T06:05:01;15.20;;;9.60;;
4738;SDS011;2383;48.632;10.156;2024-02-26T06:09:04;13.87;;;9.93;;
4738;SDS011;2383;48.632;10.156;2024-02-26T06:13:06;16.40;;;10.77;;
4738;SDS011;2383;48.632;10.156;2024-02-26T06:17:08;19.77;;;10.43;;
4738;SDS011;2383;48.632;10.156;2024-02-26T06:21:10;15.27;;;10.93;;
4738;SDS011;2383;48.632;10.156;2024-02-26T06:25:13;17.57;;;10.47;;
4738;SDS011;2383;48.632;10.156;2024-02-26T06:29:16;16.30;;;10.00;;
4738;SDS011;2383;48.632;10.156;2024-02-26T06:33:18;17.30;;;11.60;;
4738;SDS011;2383;48.632;10.156;2024-02-26T06:37:20;18.83;;;11.10;;
4738;SDS011;2383;48.632;10.156;2024-02-26T06:41:22;16.30;;;11.20;;
4738;SDS011;2383;48.632;10.156;2024-02-26T06:45:29;18.57;;;11.63;;
4738;SDS011;2383;48.632;10.156;2024-02-26T06:49:31;32.70;;;15.07;;
4738;SDS011;2383;48.632;10.156;2024-02-26T06:53:33;28.60;;;14.97;;
4738;SDS011;2383;48.632;10.156;2024-02-26T06:57:35;22.30;;;13.27;;
4738;SDS011;2383;48.632;10.156;2024-02-26T07:01:39;35.93;;;18.27;;
4738;SDS011;2383;48.632;10.156;2024-02-26T07:05:44;24.40;;;14.80;;
4738;SDS011;2383;48.632;10.156;2024-02-26T07:09:47;20.73;;;13.77;;
4738;SDS011;2383;48.632;10.156;2024-02-26T07:13:49;17.87;;;12.27;;
4738;SDS011;2383;48.632;10.156;2024-02-26T07:17:51;21.97;;;13.47;;
4738;SDS011;2383;48.632;10.156;2024-02-26T07:21:54;21.27;;;14.00;;
4738;SDS011;2383;48.632;10.156;2024-02-26T07:25:56;18.47;;;13.67;;
4738;SDS011;2383;48.632;10.156;2024-02-26T07:29:59;17.80;;;12.30;;
4738;SDS011;2383;48.632;10.156;2024-02-26T07:34:01;18.20;;;11.80;;
4738;SDS011;2383;48.632;10.156;2024-02-26T07:38:03;18.80;;;12.57;;
4738;SDS011;2383;48.632;10.156;2024-02-26T07:42:06;16.13;;;11.40;;
4738;SDS011;2383;48.632;10.156;2024-02-26T07:46:10;16.23;;;11.73;;
4738;SDS011;2383;48.632;10.156;2024-02-26T07:50:13;16.07;;;11.60;;
4738;SDS011;2383;48.632;10.156;2024-02-26T07:54:15;16.73;;;11.67;;
4738;SDS011;2383;48.632;10.156;2024-02-26T07:58:17;18.57;;;12.40;;
4738;SDS011;2383;48.632;10.156;2024-02-26T08:02:20;18.50;;;10.80;;
4738;SDS011;2383;48.632;10.156;2024-02-26T08:06:23;15.60;;;11.47;;
4738;SDS011;2383;48.632;10.156;2024-02-26T08:10:26;15.43;;;10.57;;
4738;SDS011;2383;48.632;10.156;2024-02-26T08:14:33;17.47;;;10.80;;
4738;SDS011;2383;48.632;10.156;2024-02-26T08:18:35;18.03;;;13.90;;
4738;SDS011;2383;48.632;10.156;2024-02-26T08:22:37;16.17;;;11.60;;
4738;SDS011;2383;48.632;10.156;2024-02-26T08:26:40;16.80;;;11.27;;
4738;SDS011;2383;48.632;10.156;2024-02-26T08:30:43;19.20;;;10.83;;
4738;SDS011;2383;48.632;10.156;2024-02-26T08:34:45;17.93;;;11.90;;
4738;SDS011;2383;48.632;10.156;2024-02-26T08:38:47;16.00;;;11.70;;
4738;SDS011;2383;48.632;10.156;2024-02-26T08:42:49;18.90;;;12.33;;
4738;SDS011;2383;48.632;10.156;2024-02-26T08:46:51;14.90;;;10.77;;
4738;SDS011;2383;48.632;10.156;2024-02-26T08:50:54;16.67;;;12.80;;
4738;SDS011;2383;48.632;10.156;2024-02-26T08:54:55;16.97;;;11.47;;
4738;SDS011;2383;48.632;10.156;2024-02-26T08:58:58;16.90;;;11.27;;
4738;SDS011;2383;48.632;10.156;2024-02-26T09:03:05;15.40;;;10.70;;
4738;SDS011;2383;48.632;10.156;2024-02-26T09:07:07;15.03;;;11.03;;
4738;SDS011;2383;48.632;10.156;2024-02-26T09:11:09;16.50;;;11.03;;
4738;SDS011;2383;48.632;10.156;2024-02-26T09:15:12;14.43;;;10.80;;
4738;SDS011;2383;48.632;10.156;2024-02-26T09:19:14;20.23;;;12.67;;
4738;SDS011;2383;48.632;10.156;2024-02-26T09:23:16;24.43;;;15.10;;
4738;SDS011;2383;48.632;10.156;2024-02-26T09:27:18;18.97;;;13.83;;
4738;SDS011;2383;48.632;10.156;2024-02-26T09:31:21;17.80;;;11.13;;
4738;SDS011;2383;48.632;10.156;2024-02-26T09:35:23;19.30;;;11.77;;
4738;SDS011;2383;48.632;10.156;2024-02-26T09:39:25;16.57;;;11.43;;
4738;SDS011;2383;48.632;10.156;2024-02-26T09:43:27;16.30;;;10.53;;
4738;SDS011;2383;48.632;10.156;2024-02-26T09:47:36;20.33;;;12.13;;
4738;SDS011;2383;48.632;10.156;2024-02-26T09:51:40;17.17;;;11.57;;
4738;SDS011;2383;48.632;10.156;2024-02-26T09:55:42;16.60;;;11.47;;
4738;SDS011;2383;48.632;10.156;2024-02-26T09:59:44;14.63;;;10.40;;
4738;SDS011;2383;48.632;10.156;2024-02-26T10:03:51;16.17;;;10.50;;
4738;SDS011;2383;48.632;10.156;2024-02-26T10:07:57;16.43;;;10.33;;
4738;SDS011;2383;48.632;10.156;2024-02-26T10:12:02;13.33;;;9.67;;
4738;SDS011;2383;48.632;10.156;2024-02-26T10:16:05;15.23;;;10.67;;
4738;SDS011;2383;48.632;10.156;2024-02-26T10:20:19;11.43;;;8.43;;
4738;SDS011;2383;48.632;10.156;2024-02-26T10:24:25;14.17;;;9.43;;
4738;SDS011;2383;48.632;10.156;2024-02-26T10:28:29;12.27;;;8.47;;
4738;SDS011;2383;48.632;10.156;2024-02-26T10:32:32;13.10;;;9.07;;
4738;SDS011;2383;48.632;10.156;2024-02-26T10:36:34;12.17;;;8.67;;
4738;SDS011;2383;48.632;10.156;2024-02-26T10:40:52;10.67;;;8.63;;
4738;SDS011;2383;48.632;10.156;2024-02-26T10:44:54;12.67;;;8.53;;
4738;SDS011;2383;48.632;10.156;2024-02-26T10:48:56;15.43;;;9.43;;
4738;SDS011;2383;48.632;10.156;2024-02-26T10:52:58;21.73;;;9.30;;
4738;SDS011;2383;48.632;10.156;2024-02-26T10:57:01;13.77;;;8.50;;
4738;SDS011;2383;48.632;10.156;2024-02-26T11:01:05;11.57;;;7.63;;
4738;SDS011;2383;48.632;10.156;2024-02-26T11:05:08;15.20;;;8.20;;
4738;SDS011;2383;48.632;10.156;2024-02-26T11:09:11;13.47;;;7.70;;
4738;SDS011;2383;48.632;10.156;2024-02-26T11:13:18;10.53;;;7.20;;
4738;SDS011;2383;48.632;10.156;2024-02-26T11:17:21;7.50;;;6.13;;
4738;SDS011;2383;48.632;10.156;2024-02-26T11:21:24;10.33;;;6.77;;
4738;SDS011;2383;48.632;10.156;2024-02-26T11:25:40;10.93;;;6.30;;
4738;SDS011;2383;48.632;10.156;2024-02-26T11:29:43;9.57;;;6.47;;
4738;SDS011;2383;48.632;10.156;2024-02-26T11:33:49;8.73;;;6.47;;
4738;SDS011;2383;48.632;10.156;2024-02-26T11:37:52;12.17;;;6.83;;
4738;SDS011;2383;48.632;10.156;2024-02-26T11:41:55;9.07;;;6.53;;
4738;SDS011;2383;48.632;10.156;2024-02-26T11:46:17;10.97;;;7.90;;
4738;SDS011;2383;48.632;10.156;2024-02-26T11:50:39;8.77;;;6.30;;
4738;SDS011;2383;48.632;10.156;2024-02-26T11:58:47;8.23;;;5.57;;
4738;SDS011;2383;48.632;10.156;2024-02-26T12:02:55;7.97;;;4.77;;
4738;SDS011;2383;48.632;10.156;2024-02-26T12:07:03;5.10;;;4.37;;
4738;SDS011;2383;48.632;10.156;2024-02-26T12:11:13;6.40;;;4.67;;
4738;SDS011;2383;48.632;10.156;2024-02-26T12:15:17;4.73;;;4.13;;
4738;SDS011;2383;48.632;10.156;2024-02-26T12:19:21;6.27;;;4.97;;
4738;SDS011;2383;48.632;10.156;2024-02-26T12:23:24;6.37;;;4.87;;
4738;SDS011;2383;48.632;10.156;2024-02-26T12:27:26;8.33;;;5.10;;
4738;SDS011;2383;48.632;10.156;2024-02-26T12:31:28;6.93;;;4.93;;
4738;SDS011;2383;48.632;10.156;2024-02-26T12:35:30;10.20;;;6.57;;
4738;SDS011;2383;48.632;10.156;2024-02-26T12:39:33;10.33;;;5.90;;
4738;SDS011;2383;48.632;10.156;2024-02-26T12:43:36;7.22;;;5.30;;
4738;SDS011;2383;48.632;10.156;2024-02-26T12:47:41;10.03;;;5.70;;
4738;SDS011;2383;48.632;10.156;2024-02-26T12:51:44;11.83;;;6.40;;
4738;SDS011;2383;48.632;10.156;2024-02-26T12:55:46;8.47;;;6.30;;
4738;SDS011;2383;48.632;10.156;2024-02-26T12:59:49;9.87;;;7.37;;
4738;SDS011;2383;48.632;10.156;2024-02-26T13:03:51;9.47;;;6.67;;
4738;SDS011;2383;48.632;10.156;2024-02-26T13:07:55;9.10;;;6.83;;
4738;SDS011;2383;48.632;10.156;2024-02-26T13:11:57;9.83;;;6.30;;
4738;SDS011;2383;48.632;10.156;2024-02-26T13:16:07;10.57;;;7.50;;
4738;SDS011;2383;48.632;10.156;2024-02-26T13:20:10;10.43;;;5.87;;
4738;SDS011;2383;48.632;10.156;2024-02-26T13:24:13;8.53;;;6.37;;
4738;SDS011;2383;48.632;10.156;2024-02-26T13:28:16;11.03;;;6.87;;
4738;SDS011;2383;48.632;10.156;2024-02-26T13:32:20;9.37;;;6.23;;
4738;SDS011;2383;48.632;10.156;2024-02-26T13:36:23;8.37;;;6.70;;
4738;SDS011;2383;48.632;10.156;2024-02-26T13:40:27;9.57;;;6.97;;
4738;SDS011;2383;48.632;10.156;2024-02-26T13:44:30;9.33;;;6.77;;
4738;SDS011;2383;48.632;10.156;2024-02-26T13:48:33;10.20;;;6.90;;
4738;SDS011;2383;48.632;10.156;2024-02-26T13:52:35;11.38;;;6.68;;
4738;SDS011;2383;48.632;10.156;2024-02-26T13:56:37;9.50;;;6.50;;
4738;SDS011;2383;48.632;10.156;2024-02-26T14:00:40;9.87;;;7.37;;
4738;SDS011;2383;48.632;10.156;2024-02-26T14:04:44;9.63;;;7.00;;
4738;SDS011;2383;48.632;10.156;2024-02-26T14:08:47;10.95;;;7.00;;
4738;SDS011;2383;48.632;10.156;2024-02-26T14:12:49;11.23;;;7.18;;
4738;SDS011;2383;48.632;10.156;2024-02-26T14:16:52;10.60;;;7.15;;
4738;SDS011;2383;48.632;10.156;2024-02-26T14:20:54;9.20;;;6.90;;
4738;SDS011;2383;48.632;10.156;2024-02-26T14:24:56;10.57;;;7.23;;
4738;SDS011;2383;48.632;10.156;2024-02-26T14:28:58;9.43;;;5.47;;
4738;SDS011;2383;48.632;10.156;2024-02-26T14:33:00;5.50;;;3.47;;
4738;SDS011;2383;48.632;10.156;2024-02-26T14:37:03;8.73;;;4.10;;
4738;SDS011;2383;48.632;10.156;2024-02-26T14:41:05;6.22;;;5.43;;
4738;SDS011;2383;48.632;10.156;2024-02-26T14:45:07;10.30;;;5.93;;
4738;SDS011;2383;48.632;10.156;2024-02-26T14:49:11;17.27;;;11.07;;
4738;SDS011;2383;48.632;10.156;2024-02-26T14:53:15;11.73;;;9.77;;
4738;SDS011;2383;48.632;10.156;2024-02-26T14:57:18;7.03;;;4.80;;
4738;SDS011;2383;48.632;10.156;2024-02-26T15:01:20;5.38;;;4.30;;
4738;SDS011;2383;48.632;10.156;2024-02-26T15:05:22;8.60;;;5.30;;
4738;SDS011;2383;48.632;10.156;2024-02-26T15:09:25;9.80;;;6.90;;
4738;SDS011;2383;48.632;10.156;2024-02-26T15:13:27;8.50;;;5.28;;
4738;SDS011;2383;48.632;10.156;2024-02-26T15:17:30;7.80;;;4.80;;
4738;SDS011;2383;48.632;10.156;2024-02-26T15:21:42;8.70;;;5.93;;
4738;SDS011;2383;48.632;10.156;2024-02-26T15:25:47;10.23;;;4.93;;
4738;SDS011;2383;48.632;10.156;2024-02-26T15:29:49;7.97;;;5.20;;
4738;SDS011;2383;48.632;10.156;2024-02-26T15:33:57;9.53;;;5.67;;
4738;SDS011;2383;48.632;10.156;2024-02-26T15:38:00;7.30;;;5.03;;
4738;SDS011;2383;48.632;10.156;2024-02-26T15:42:02;6.80;;;5.10;;
4738;SDS011;2383;48.632;10.156;2024-02-26T15:46:04;7.40;;;5.50;;
4738;SDS011;2383;48.632;10.156;2024-02-26T15:50:07;7.50;;;5.60;;
4738;SDS011;2383;48.632;10.156;2024-02-26T15:54:11;9.87;;;5.83;;
4738;SDS011;2383;48.632;10.156;2024-02-26T15:58:14;7.30;;;5.10;;
4738;SDS011;2383;48.632;10.156;2024-02-26T16:02:16;8.70;;;4.97;;
4738;SDS011;2383;48.632;10.156;2024-02-26T16:06:20;11.32;;;4.90;;
4738;SDS011;2383;48.632;10.156;2024-02-26T16:10:42;7.23;;;4.83;;
4738;SDS011;2383;48.632;10.156;2024-02-26T16:18:51;6.27;;;4.40;;
4738;SDS011;2383;48.632;10.156;2024-02-26T16:23:03;5.30;;;3.33;;
4738;SDS011;2383;48.632;10.156;2024-02-26T16:27:08;4.90;;;3.20;;
4738;SDS011;2383;48.632;10.156;2024-02-26T16:31:10;5.87;;;4.30;;
4738;SDS011;2383;48.632;10.156;2024-02-26T16:35:12;5.20;;;4.00;;
4738;SDS011;2383;48.632;10.156;2024-02-26T16:39:15;4.27;;;3.33;;
4738;SDS011;2383;48.632;10.156;2024-02-26T16:43:19;4.47;;;2.90;;
4738;SDS011;2383;48.632;10.156;2024-02-26T16:47:21;4.75;;;2.92;;
4738;SDS011;2383;48.632;10.156;2024-02-26T16:51:23;12.63;;;9.37;;
4738;SDS011;2383;48.632;10.156;2024-02-26T16:55:25;9.70;;;7.03;;
4738;SDS011;2383;48.632;10.156;2024-02-26T16:59:29;7.27;;;5.90;;
4738;SDS011;2383;48.632;10.156;2024-02-26T17:03:31;5.10;;;3.93;;
4738;SDS011;2383;48.632;10.156;2024-02-26T17:07:34;26.33;;;13.13;;
4738;SDS011;2383;48.632;10.156;2024-02-26T17:11:36;8.23;;;5.07;;
4738;SDS011;2383;48.632;10.156;2024-02-26T17:15:40;8.50;;;2.87;;
4738;SDS011;2383;48.632;10.156;2024-02-26T17:19:42;3.53;;;3.00;;
4738;SDS011;2383;48.632;10.156;2024-02-26T17:23:45;3.77;;;2.87;;
4738;SDS011;2383;48.632;10.156;2024-02-26T17:27:47;3.90;;;2.90;;
4738;SDS011;2383;48.632;10.156;2024-02-26T17:31:50;2.60;;;2.10;;
4738;SDS011;2383;48.632;10.156;2024-02-26T17:35:52;3.20;;;2.50;;
4738;SDS011;2383;48.632;10.156;2024-02-26T17:39:54;4.30;;;3.07;;
4738;SDS011;2383;48.632;10.156;2024-02-26T17:43:56;9.27;;;5.90;;
4738;SDS011;2383;48.632;10.156;2024-02-26T17:47:58;6.57;;;4.43;;
4738;SDS011;2383;48.632;10.156;2024-02-26T17:52:00;11.47;;;5.97;;
4738;SDS011;2383;48.632;10.156;2024-02-26T17:56:03;4.03;;;3.00;;
4738;SDS011;2383;48.632;10.156;2024-02-26T18:00:08;3.83;;;2.50;;
4738;SDS011;2383;48.632;10.156;2024-02-26T18:04:10;6.20;;;2.60;;
4738;SDS011;2383;48.632;10.156;2024-02-26T18:08:12;3.90;;;2.57;;
4738;SDS011;2383;48.632;10.156;2024-02-26T18:12:15;3.47;;;2.87;;
4738;SDS011;2383;48.632;10.156;2024-02-26T18:16:17;4.93;;;3.27;;
4738;SDS011;2383;48.632;10.156;2024-02-26T18:20:19;3.63;;;2.93;;
4738;SDS011;2383;48.632;10.156;2024-02-26T18:24:21;2.50;;;2.30;;
4738;SDS011;2383;48.632;10.156;2024-02-26T18:28:23;3.43;;;2.57;;
4738;SDS011;2383;48.632;10.156;2024-02-26T18:32:26;22.83;;;16.67;;
4738;SDS011;2383;48.632;10.156;2024-02-26T18:36:28;23.47;;;15.13;;
4738;SDS011;2383;48.632;10.156;2024-02-26T18:40:30;8.63;;;4.93;;
4738;SDS011;2383;48.632;10.156;2024-02-26T18:44:33;38.17;;;21.27;;
4738;SDS011;2383;48.632;10.156;2024-02-26T18:48:38;24.80;;;14.50;;
4738;SDS011;2383;48.632;10.156;2024-02-26T18:52:41;14.97;;;9.50;;
4738;SDS011;2383;48.632;10.156;2024-02-26T18:56:43;17.23;;;11.77;;
4738;SDS011;2383;48.632;10.156;2024-02-26T19:00:45;10.23;;;7.40;;
4738;SDS011;2383;48.632;10.156;2024-02-26T19:04:48;13.27;;;8.50;;
4738;SDS011;2383;48.632;10.156;2024-02-26T19:08:50;28.17;;;15.07;;
4738;SDS011;2383;48.632;10.156;2024-02-26T19:12:53;16.67;;;7.90;;
4738;SDS011;2383;48.632;10.156;2024-02-26T19:16:56;5.50;;;3.60;;
4738;SDS011;2383;48.632;10.156;2024-02-26T19:20:58;7.30;;;5.63;;
4738;SDS011;2383;48.632;10.156;2024-02-26T19:25:01;10.43;;;5.72;;
4738;SDS011;2383;48.632;10.156;2024-02-26T19:29:03;12.80;;;7.70;;
4738;SDS011;2383;48.632;10.156;2024-02-26T19:33:09;17.70;;;9.83;;
4738;SDS011;2383;48.632;10.156;2024-02-26T19:37:12;25.70;;;14.63;;
4738;SDS011;2383;48.632;10.156;2024-02-26T19:41:15;24.17;;;13.83;;
4738;SDS011;2383;48.632;10.156;2024-02-26T19:45:17;13.67;;;8.93;;
4738;SDS011;2383;48.632;10.156;2024-02-26T19:49:19;17.20;;;10.30;;
4738;SDS011;2383;48.632;10.156;2024-02-26T19:53:21;32.20;;;15.80;;
4738;SDS011;2383;48.632;10.156;2024-02-26T19:57:24;24.60;;;14.13;;
4738;SDS011;2383;48.632;10.156;2024-02-26T20:01:26;23.20;;;13.03;;
4738;SDS011;2383;48.632;10.156;2024-02-26T20:05:28;19.40;;;12.13;;
4738;SDS011;2383;48.632;10.156;2024-02-26T20:09:31;20.60;;;11.77;;
4738;SDS011;2383;48.632;10.156;2024-02-26T20:13:34;27.07;;;13.97;;
4738;SDS011;2383;48.632;10.156;2024-02-26T20:17:36;28.40;;;16.83;;
4738;SDS011;2383;48.632;10.156;2024-02-26T20:21:38;19.50;;;11.17;;
4738;SDS011;2383;48.632;10.156;2024-02-26T20:25:42;14.50;;;8.00;;
4738;SDS011;2383;48.632;10.156;2024-02-26T20:29:44;6.60;;;4.40;;
4738;SDS011;2383;48.632;10.156;2024-02-26T20:33:46;5.13;;;2.70;;
4738;SDS011;2383;48.632;10.156;2024-02-26T20:37:49;3.20;;;2.57;;
4738;SDS011;2383;48.632;10.156;2024-02-26T20:41:51;6.73;;;4.70;;
4738;SDS011;2383;48.632;10.156;2024-02-26T20:45:54;13.37;;;6.27;;
4738;SDS011;2383;48.632;10.156;2024-02-26T20:49:56;5.90;;;4.33;;
4738;SDS011;2383;48.632;10.156;2024-02-26T20:53:59;5.13;;;3.20;;
4738;SDS011;2383;48.632;10.156;2024-02-26T20:58:01;4.13;;;2.70;;
4738;SDS011;2383;48.632;10.156;2024-02-26T21:02:04;5.03;;;3.20;;
4738;SDS011;2383;48.632;10.156;2024-02-26T21:06:06;6.17;;;4.00;;
4738;SDS011;2383;48.632;10.156;2024-02-26T21:10:09;4.13;;;3.00;;
4738;SDS011;2383;48.632;10.156;2024-02-26T21:14:12;4.20;;;3.17;;
4738;SDS011;2383;48.632;10.156;2024-02-26T21:18:14;4.80;;;2.93;;
4738;SDS011;2383;48.632;10.156;2024-02-26T21:22:18;5.20;;;2.93;;
4738;SDS011;2383;48.632;10.156;2024-02-26T21:26:20;3.50;;;2.67;;
4738;SDS011;2383;48.632;10.156;2024-02-26T21:30:22;5.00;;;3.03;;
4738;SDS011;2383;48.632;10.156;2024-02-26T21:34:24;3.40;;;2.70;;
4738;SDS011;2383;48.632;10.156;2024-02-26T21:38:26;4.60;;;2.93;;
4738;SDS011;2383;48.632;10.156;2024-02-26T21:42:42;5.30;;;3.13;;
4738;SDS011;2383;48.632;10.156;2024-02-26T21:46:45;4.50;;;2.80;;
4738;SDS011;2383;48.632;10.156;2024-02-26T21:50:48;4.77;;;2.63;;
4738;SDS011;2383;48.632;10.156;2024-02-26T21:54:50;5.93;;;2.63;;
4738;SDS011;2383;48.632;10.156;2024-02-26T21:58:53;4.23;;;2.60;;
4738;SDS011;2383;48.632;10.156;2024-02-26T22:02:55;2.67;;;2.40;;
4738;SDS011;2383;48.632;10.156;2024-02-26T22:06:57;4.43;;;2.60;;
4738;SDS011;2383;48.632;10.156;2024-02-26T22:10:59;3.77;;;2.53;;
4738;SDS011;2383;48.632;10.156;2024-02-26T22:15:03;6.70;;;2.67;;
4738;SDS011;2383;48.632;10.156;2024-02-26T22:19:12;4.50;;;2.53;;
4738;SDS011;2383;48.632;10.156;2024-02-26T22:23:16;5.50;;;2.70;;
4738;SDS011;2383;48.632;10.156;2024-02-26T22:27:18;4.70;;;3.00;;
4738;SDS011;2383;48.632;10.156;2024-02-26T22:31:20;8.27;;;4.47;;
4738;SDS011;2383;48.632;10.156;2024-02-26T22:35:23;5.57;;;3.70;;
4738;SDS011;2383;48.632;10.156;2024-02-26T22:39:26;7.90;;;3.80;;
4738;SDS011;2383;48.632;10.156;2024-02-26T22:43:28;8.00;;;5.87;;
4738;SDS011;2383;48.632;10.156;2024-02-26T22:47:30;9.80;;;6.27;;
4738;SDS011;2383;48.632;10.156;2024-02-26T22:51:33;5.47;;;3.63;;
4738;SDS011;2383;48.632;10.156;2024-02-26T22:55:35;5.83;;;3.80;;
4738;SDS011;2383;48.632;10.156;2024-02-26T22:59:37;4.37;;;2.70;;
4738;SDS011;2383;48.632;10.156;2024-02-26T23:03:39;4.00;;;2.70;;
4738;SDS011;2383;48.632;10.156;2024-02-26T23:07:41;4.60;;;2.80;;
4738;SDS011;2383;48.632;10.156;2024-02-26T23:11:44;6.30;;;4.00;;
4738;SDS011;2383;48.632;10.156;2024-02-26T23:15:46;4.33;;;3.37;;
4738;SDS011;2383;48.632;10.156;2024-02-26T23:19:49;4.03;;;2.97;;
4738;SDS011;2383;48.632;10.156;2024-02-26T23:23:51;6.37;;;2.97;;
4738;SDS011;2383;48.632;10.156;2024-02-26T23:27:53;4.23;;;2.50;;
4738;SDS011;2383;48.632;10.156;2024-02-26T23:31:56;3.13;;;2.50;;
4738;SDS011;2383;48.632;10.156;2024-02-26T23:35:58;3.97;;;2.50;;
4738;SDS011;2383;48.632;10.156;2024-02-26T23:40:01;3.10;;;2.37;;
4738;SDS011;2383;48.632;10.156;2024-02-26T23:44:07;2.53;;;2.13;;
4738;SDS011;2383;48.632;10.156;2024-02-26T23:48:09;4.13;;;2.40;;
4738;SDS011;2383;48.632;10.156;2024-02-26T23:52:11;3.07;;;2.43;;
4738;SDS011;2383;48.632;10.156;2024-02-26T23:56:13;3.30;;;2.43;;
